sensor_id;sensor_type;location;lat;lon;timestamp;P1;durP1;ratioP1;P2;durP2;ratioP2
22129;SDS011;11231;50.746;4.272;2024-02-16T00:01:45;4.37;;;1.80;;
22129;SDS011;11231;50.746;4.272;2024-02-16T00:04:11;5.80;;;2.00;;
22129;SDS011;11231;50.746;4.272;2024-02-16T00:06:36;6.60;;;2.40;;
22129;SDS011;11231;50.746;4.272;2024-02-16T00:09:02;6.23;;;2.43;;
22129;SDS011;11231;50.746;4.272;2024-02-16T00:11:28;5.73;;;2.23;;
22129;SDS011;11231;50.746;4.272;2024-02-16T00:13:54;5.40;;;2.20;;
22129;SDS011;11231;50.746;4.272;2024-02-16T00:16:19;6.13;;;2.30;;
22129;SDS011;11231;50.746;4.272;2024-02-16T00:18:46;9.47;;;2.53;;
22129;SDS011;11231;50.746;4.272;2024-02-16T00:21:11;4.37;;;2.03;;
22129;SDS011;11231;50.746;4.272;2024-02-16T00:23:37;4.70;;;2.20;;
22129;SDS011;11231;50.746;4.272;2024-02-16T00:26:03;7.97;;;2.30;;
22129;SDS011;11231;50.746;4.272;2024-02-16T00:28:32;6.03;;;2.10;;
22129;SDS011;11231;50.746;4.272;2024-02-16T00:30:57;4.17;;;2.13;;
22129;SDS011;11231;50.746;4.272;2024-02-16T00:33:23;5.80;;;2.03;;
22129;SDS011;11231;50.746;4.272;2024-02-16T00:35:49;5.23;;;2.40;;
22129;SDS011;11231;50.746;4.272;2024-02-16T00:38:14;7.47;;;2.60;;
22129;SDS011;11231;50.746;4.272;2024-02-16T00:40:40;4.97;;;2.00;;
22129;SDS011;11231;50.746;4.272;2024-02-16T00:43:09;7.00;;;2.20;;
22129;SDS011;11231;50.746;4.272;2024-02-16T00:45:36;7.87;;;2.40;;
22129;SDS011;11231;50.746;4.272;2024-02-16T00:48:02;7.00;;;2.60;;
22129;SDS011;11231;50.746;4.272;2024-02-16T00:50:28;5.70;;;2.20;;
22129;SDS011;11231;50.746;4.272;2024-02-16T00:52:54;6.50;;;2.60;;
22129;SDS011;11231;50.746;4.272;2024-02-16T00:55:20;7.37;;;2.20;;
22129;SDS011;11231;50.746;4.272;2024-02-16T00:57:46;6.90;;;2.50;;
22129;SDS011;11231;50.746;4.272;2024-02-16T01:00:11;4.37;;;2.30;;
22129;SDS011;11231;50.746;4.272;2024-02-16T01:02:37;5.43;;;2.40;;
22129;SDS011;11231;50.746;4.272;2024-02-16T01:05:04;6.13;;;2.40;;
22129;SDS011;11231;50.746;4.272;2024-02-16T01:07:30;7.87;;;2.57;;
22129;SDS011;11231;50.746;4.272;2024-02-16T01:09:57;4.77;;;2.30;;
22129;SDS011;11231;50.746;4.272;2024-02-16T01:12:22;5.07;;;2.10;;
22129;SDS011;11231;50.746;4.272;2024-02-16T01:14:48;7.40;;;2.30;;
22129;SDS011;11231;50.746;4.272;2024-02-16T01:17:14;7.70;;;2.37;;
22129;SDS011;11231;50.746;4.272;2024-02-16T01:19:39;7.37;;;2.33;;
22129;SDS011;11231;50.746;4.272;2024-02-16T01:22:05;8.50;;;2.60;;
22129;SDS011;11231;50.746;4.272;2024-02-16T01:24:31;4.40;;;1.87;;
22129;SDS011;11231;50.746;4.272;2024-02-16T01:26:56;8.20;;;2.50;;
22129;SDS011;11231;50.746;4.272;2024-02-16T01:29:23;5.93;;;2.57;;
22129;SDS011;11231;50.746;4.272;2024-02-16T01:31:49;5.70;;;2.20;;
22129;SDS011;11231;50.746;4.272;2024-02-16T01:34:14;5.70;;;2.23;;
22129;SDS011;11231;50.746;4.272;2024-02-16T01:36:40;9.43;;;2.87;;
22129;SDS011;11231;50.746;4.272;2024-02-16T01:39:06;8.50;;;2.70;;
22129;SDS011;11231;50.746;4.272;2024-02-16T01:41:32;7.87;;;2.83;;
22129;SDS011;11231;50.746;4.272;2024-02-16T01:43:58;6.77;;;2.50;;
22129;SDS011;11231;50.746;4.272;2024-02-16T01:46:24;4.53;;;2.30;;
22129;SDS011;11231;50.746;4.272;2024-02-16T01:48:51;6.07;;;2.40;;
22129;SDS011;11231;50.746;4.272;2024-02-16T01:51:17;6.40;;;2.53;;
22129;SDS011;11231;50.746;4.272;2024-02-16T01:53:43;6.77;;;2.37;;
22129;SDS011;11231;50.746;4.272;2024-02-16T01:56:10;8.97;;;2.80;;
22129;SDS011;11231;50.746;4.272;2024-02-16T01:58:35;6.17;;;2.50;;
22129;SDS011;11231;50.746;4.272;2024-02-16T02:01:01;6.30;;;2.57;;
22129;SDS011;11231;50.746;4.272;2024-02-16T02:03:28;6.10;;;2.40;;
22129;SDS011;11231;50.746;4.272;2024-02-16T02:05:54;6.80;;;2.63;;
22129;SDS011;11231;50.746;4.272;2024-02-16T02:08:21;8.50;;;2.63;;
22129;SDS011;11231;50.746;4.272;2024-02-16T02:10:47;5.40;;;2.63;;
22129;SDS011;11231;50.746;4.272;2024-02-16T02:13:13;6.47;;;2.60;;
22129;SDS011;11231;50.746;4.272;2024-02-16T02:15:40;5.50;;;2.33;;
22129;SDS011;11231;50.746;4.272;2024-02-16T02:18:06;7.23;;;2.60;;
22129;SDS011;11231;50.746;4.272;2024-02-16T02:20:32;7.63;;;2.47;;
22129;SDS011;11231;50.746;4.272;2024-02-16T02:22:58;6.83;;;2.60;;
22129;SDS011;11231;50.746;4.272;2024-02-16T02:25:24;7.70;;;2.53;;
22129;SDS011;11231;50.746;4.272;2024-02-16T02:27:52;6.60;;;2.40;;
22129;SDS011;11231;50.746;4.272;2024-02-16T02:30:17;4.80;;;2.40;;
22129;SDS011;11231;50.746;4.272;2024-02-16T02:32:43;7.40;;;2.53;;
22129;SDS011;11231;50.746;4.272;2024-02-16T02:35:09;6.60;;;2.50;;
22129;SDS011;11231;50.746;4.272;2024-02-16T02:37:36;10.20;;;2.70;;
22129;SDS011;11231;50.746;4.272;2024-02-16T02:40:02;9.37;;;2.63;;
22129;SDS011;11231;50.746;4.272;2024-02-16T02:42:31;7.83;;;2.60;;
22129;SDS011;11231;50.746;4.272;2024-02-16T02:44:57;8.97;;;2.77;;
22129;SDS011;11231;50.746;4.272;2024-02-16T02:47:22;5.90;;;2.40;;
22129;SDS011;11231;50.746;4.272;2024-02-16T02:49:48;5.70;;;2.60;;
22129;SDS011;11231;50.746;4.272;2024-02-16T02:52:14;7.33;;;2.50;;
22129;SDS011;11231;50.746;4.272;2024-02-16T02:54:39;7.83;;;2.60;;
22129;SDS011;11231;50.746;4.272;2024-02-16T02:57:05;6.90;;;2.80;;
22129;SDS011;11231;50.746;4.272;2024-02-16T02:59:31;9.90;;;3.00;;
22129;SDS011;11231;50.746;4.272;2024-02-16T03:01:56;7.47;;;2.60;;
22129;SDS011;11231;50.746;4.272;2024-02-16T03:04:22;8.10;;;3.00;;
22129;SDS011;11231;50.746;4.272;2024-02-16T03:06:48;8.47;;;2.90;;
22129;SDS011;11231;50.746;4.272;2024-02-16T03:09:16;8.00;;;2.87;;
22129;SDS011;11231;50.746;4.272;2024-02-16T03:11:42;8.33;;;3.20;;
22129;SDS011;11231;50.746;4.272;2024-02-16T03:14:07;9.87;;;2.67;;
22129;SDS011;11231;50.746;4.272;2024-02-16T03:16:33;7.77;;;2.50;;
22129;SDS011;11231;50.746;4.272;2024-02-16T03:18:59;9.00;;;3.13;;
22129;SDS011;11231;50.746;4.272;2024-02-16T03:21:25;6.17;;;2.63;;
22129;SDS011;11231;50.746;4.272;2024-02-16T03:23:51;6.47;;;2.90;;
22129;SDS011;11231;50.746;4.272;2024-02-16T03:26:17;9.47;;;2.77;;
22129;SDS011;11231;50.746;4.272;2024-02-16T03:28:47;6.50;;;2.50;;
22129;SDS011;11231;50.746;4.272;2024-02-16T03:31:16;7.00;;;2.70;;
22129;SDS011;11231;50.746;4.272;2024-02-16T03:33:43;8.97;;;2.87;;
22129;SDS011;11231;50.746;4.272;2024-02-16T03:36:09;8.63;;;3.10;;
22129;SDS011;11231;50.746;4.272;2024-02-16T03:38:37;6.43;;;2.50;;
22129;SDS011;11231;50.746;4.272;2024-02-16T03:41:03;9.57;;;2.80;;
22129;SDS011;11231;50.746;4.272;2024-02-16T03:43:29;7.07;;;2.80;;
22129;SDS011;11231;50.746;4.272;2024-02-16T03:45:55;8.43;;;2.57;;
22129;SDS011;11231;50.746;4.272;2024-02-16T03:48:20;7.83;;;2.80;;
22129;SDS011;11231;50.746;4.272;2024-02-16T03:50:46;5.07;;;2.60;;
22129;SDS011;11231;50.746;4.272;2024-02-16T03:53:12;9.60;;;3.17;;
22129;SDS011;11231;50.746;4.272;2024-02-16T03:55:38;6.83;;;3.00;;
22129;SDS011;11231;50.746;4.272;2024-02-16T03:58:03;7.37;;;2.93;;
22129;SDS011;11231;50.746;4.272;2024-02-16T04:00:29;8.33;;;3.20;;
22129;SDS011;11231;50.746;4.272;2024-02-16T04:02:55;8.90;;;2.80;;
22129;SDS011;11231;50.746;4.272;2024-02-16T04:05:20;7.70;;;3.03;;
22129;SDS011;11231;50.746;4.272;2024-02-16T04:07:46;8.20;;;2.97;;
22129;SDS011;11231;50.746;4.272;2024-02-16T04:10:12;11.60;;;3.30;;
22129;SDS011;11231;50.746;4.272;2024-02-16T04:12:38;6.77;;;2.83;;
22129;SDS011;11231;50.746;4.272;2024-02-16T04:15:03;10.97;;;3.00;;
22129;SDS011;11231;50.746;4.272;2024-02-16T04:17:29;7.03;;;2.80;;
22129;SDS011;11231;50.746;4.272;2024-02-16T04:19:55;11.20;;;2.97;;
22129;SDS011;11231;50.746;4.272;2024-02-16T04:22:21;7.83;;;3.00;;
22129;SDS011;11231;50.746;4.272;2024-02-16T04:24:46;7.17;;;2.87;;
22129;SDS011;11231;50.746;4.272;2024-02-16T04:27:12;7.73;;;2.83;;
22129;SDS011;11231;50.746;4.272;2024-02-16T04:29:38;8.43;;;3.07;;
22129;SDS011;11231;50.746;4.272;2024-02-16T04:32:03;8.87;;;2.90;;
22129;SDS011;11231;50.746;4.272;2024-02-16T04:34:29;8.47;;;3.10;;
22129;SDS011;11231;50.746;4.272;2024-02-16T04:36:55;9.73;;;2.90;;
22129;SDS011;11231;50.746;4.272;2024-02-16T04:39:20;8.60;;;2.93;;
22129;SDS011;11231;50.746;4.272;2024-02-16T04:41:46;7.63;;;3.10;;
22129;SDS011;11231;50.746;4.272;2024-02-16T04:44:12;9.27;;;3.10;;
22129;SDS011;11231;50.746;4.272;2024-02-16T04:46:38;9.90;;;3.10;;
22129;SDS011;11231;50.746;4.272;2024-02-16T04:49:04;7.87;;;3.13;;
22129;SDS011;11231;50.746;4.272;2024-02-16T04:51:29;7.27;;;2.63;;
22129;SDS011;11231;50.746;4.272;2024-02-16T04:53:55;7.70;;;3.10;;
22129;SDS011;11231;50.746;4.272;2024-02-16T04:56:22;6.97;;;2.70;;
22129;SDS011;11231;50.746;4.272;2024-02-16T04:58:48;8.93;;;2.93;;
22129;SDS011;11231;50.746;4.272;2024-02-16T05:01:13;8.17;;;3.00;;
22129;SDS011;11231;50.746;4.272;2024-02-16T05:03:39;12.50;;;2.83;;
22129;SDS011;11231;50.746;4.272;2024-02-16T05:06:08;10.97;;;3.40;;
22129;SDS011;11231;50.746;4.272;2024-02-16T05:08:33;9.17;;;3.13;;
22129;SDS011;11231;50.746;4.272;2024-02-16T05:11:02;9.47;;;3.00;;
22129;SDS011;11231;50.746;4.272;2024-02-16T05:13:28;10.97;;;3.23;;
22129;SDS011;11231;50.746;4.272;2024-02-16T05:15:53;8.53;;;3.00;;
22129;SDS011;11231;50.746;4.272;2024-02-16T05:18:21;7.73;;;3.03;;
22129;SDS011;11231;50.746;4.272;2024-02-16T05:20:47;10.97;;;2.93;;
22129;SDS011;11231;50.746;4.272;2024-02-16T05:23:13;8.07;;;3.03;;
22129;SDS011;11231;50.746;4.272;2024-02-16T05:25:39;9.80;;;3.03;;
22129;SDS011;11231;50.746;4.272;2024-02-16T05:28:04;8.40;;;3.03;;
22129;SDS011;11231;50.746;4.272;2024-02-16T05:30:30;10.70;;;3.47;;
22129;SDS011;11231;50.746;4.272;2024-02-16T05:32:56;8.03;;;3.00;;
22129;SDS011;11231;50.746;4.272;2024-02-16T05:35:24;8.13;;;2.87;;
22129;SDS011;11231;50.746;4.272;2024-02-16T05:37:54;8.70;;;3.10;;
22129;SDS011;11231;50.746;4.272;2024-02-16T05:40:20;7.00;;;3.10;;
22129;SDS011;11231;50.746;4.272;2024-02-16T05:43:09;9.50;;;3.50;;
22129;SDS011;11231;50.746;4.272;2024-02-16T05:45:34;11.03;;;3.53;;
22129;SDS011;11231;50.746;4.272;2024-02-16T05:48:00;8.67;;;3.17;;
22129;SDS011;11231;50.746;4.272;2024-02-16T05:50:26;9.87;;;3.37;;
22129;SDS011;11231;50.746;4.272;2024-02-16T05:52:52;10.17;;;3.30;;
22129;SDS011;11231;50.746;4.272;2024-02-16T05:55:18;10.97;;;3.53;;
22129;SDS011;11231;50.746;4.272;2024-02-16T05:57:44;10.47;;;3.40;;
22129;SDS011;11231;50.746;4.272;2024-02-16T06:00:10;10.93;;;3.50;;
22129;SDS011;11231;50.746;4.272;2024-02-16T06:02:36;8.90;;;3.37;;
22129;SDS011;11231;50.746;4.272;2024-02-16T06:05:02;9.00;;;3.57;;
22129;SDS011;11231;50.746;4.272;2024-02-16T06:07:29;9.83;;;3.10;;
22129;SDS011;11231;50.746;4.272;2024-02-16T06:09:55;10.30;;;3.67;;
22129;SDS011;11231;50.746;4.272;2024-02-16T06:12:22;12.30;;;3.90;;
22129;SDS011;11231;50.746;4.272;2024-02-16T06:14:48;10.97;;;3.60;;
22129;SDS011;11231;50.746;4.272;2024-02-16T06:17:15;9.93;;;3.47;;
22129;SDS011;11231;50.746;4.272;2024-02-16T06:19:41;9.40;;;3.50;;
22129;SDS011;11231;50.746;4.272;2024-02-16T06:22:07;9.67;;;3.43;;
22129;SDS011;11231;50.746;4.272;2024-02-16T06:24:33;9.10;;;3.70;;
22129;SDS011;11231;50.746;4.272;2024-02-16T06:26:59;10.50;;;3.80;;
22129;SDS011;11231;50.746;4.272;2024-02-16T06:29:25;14.10;;;4.57;;
22129;SDS011;11231;50.746;4.272;2024-02-16T06:31:51;11.27;;;4.00;;
22129;SDS011;11231;50.746;4.272;2024-02-16T06:34:17;10.17;;;3.70;;
22129;SDS011;11231;50.746;4.272;2024-02-16T06:36:43;10.23;;;4.00;;
22129;SDS011;11231;50.746;4.272;2024-02-16T06:39:10;10.07;;;3.87;;
22129;SDS011;11231;50.746;4.272;2024-02-16T06:41:36;10.43;;;4.30;;
22129;SDS011;11231;50.746;4.272;2024-02-16T06:44:02;11.03;;;4.23;;
22129;SDS011;11231;50.746;4.272;2024-02-16T06:46:31;13.10;;;3.70;;
22129;SDS011;11231;50.746;4.272;2024-02-16T06:48:57;12.73;;;3.90;;
22129;SDS011;11231;50.746;4.272;2024-02-16T06:51:23;11.27;;;4.13;;
22129;SDS011;11231;50.746;4.272;2024-02-16T06:53:50;13.03;;;4.13;;
22129;SDS011;11231;50.746;4.272;2024-02-16T06:56:16;11.43;;;4.47;;
22129;SDS011;11231;50.746;4.272;2024-02-16T06:58:43;11.23;;;4.37;;
22129;SDS011;11231;50.746;4.272;2024-02-16T07:01:10;9.83;;;3.83;;
22129;SDS011;11231;50.746;4.272;2024-02-16T07:03:37;16.50;;;4.70;;
22129;SDS011;11231;50.746;4.272;2024-02-16T07:06:03;12.10;;;4.63;;
22129;SDS011;11231;50.746;4.272;2024-02-16T07:08:29;17.37;;;4.80;;
22129;SDS011;11231;50.746;4.272;2024-02-16T07:10:55;11.83;;;4.60;;
22129;SDS011;11231;50.746;4.272;2024-02-16T07:13:22;13.70;;;6.07;;
22129;SDS011;11231;50.746;4.272;2024-02-16T07:15:48;15.87;;;5.93;;
22129;SDS011;11231;50.746;4.272;2024-02-16T07:18:14;17.13;;;5.43;;
22129;SDS011;11231;50.746;4.272;2024-02-16T07:20:40;17.97;;;5.60;;
22129;SDS011;11231;50.746;4.272;2024-02-16T07:23:06;13.57;;;5.27;;
22129;SDS011;11231;50.746;4.272;2024-02-16T07:25:32;20.73;;;5.60;;
22129;SDS011;11231;50.746;4.272;2024-02-16T07:27:58;18.17;;;5.40;;
22129;SDS011;11231;50.746;4.272;2024-02-16T07:30:23;14.27;;;5.40;;
22129;SDS011;11231;50.746;4.272;2024-02-16T07:32:52;18.73;;;6.00;;
22129;SDS011;11231;50.746;4.272;2024-02-16T07:35:20;14.37;;;5.90;;
22129;SDS011;11231;50.746;4.272;2024-02-16T07:37:50;17.43;;;6.63;;
22129;SDS011;11231;50.746;4.272;2024-02-16T07:40:19;17.73;;;6.13;;
22129;SDS011;11231;50.746;4.272;2024-02-16T07:42:45;14.27;;;6.10;;
22129;SDS011;11231;50.746;4.272;2024-02-16T07:45:11;15.37;;;5.50;;
22129;SDS011;11231;50.746;4.272;2024-02-16T07:47:38;11.83;;;4.87;;
22129;SDS011;11231;50.746;4.272;2024-02-16T07:50:05;12.13;;;5.03;;
22129;SDS011;11231;50.746;4.272;2024-02-16T07:52:31;10.87;;;4.43;;
22129;SDS011;11231;50.746;4.272;2024-02-16T07:54:57;11.47;;;4.87;;
22129;SDS011;11231;50.746;4.272;2024-02-16T07:57:23;12.10;;;4.80;;
22129;SDS011;11231;50.746;4.272;2024-02-16T07:59:49;11.07;;;4.80;;
22129;SDS011;11231;50.746;4.272;2024-02-16T08:02:15;13.17;;;4.37;;
22129;SDS011;11231;50.746;4.272;2024-02-16T08:04:43;11.90;;;5.30;;
22129;SDS011;11231;50.746;4.272;2024-02-16T08:07:12;12.20;;;4.50;;
22129;SDS011;11231;50.746;4.272;2024-02-16T08:09:38;13.33;;;4.43;;
22129;SDS011;11231;50.746;4.272;2024-02-16T08:12:04;11.60;;;3.83;;
22129;SDS011;11231;50.746;4.272;2024-02-16T08:14:34;12.33;;;4.53;;
22129;SDS011;11231;50.746;4.272;2024-02-16T08:17:00;14.53;;;4.97;;
22129;SDS011;11231;50.746;4.272;2024-02-16T08:19:32;13.70;;;5.63;;
22129;SDS011;11231;50.746;4.272;2024-02-16T08:22:00;17.17;;;5.70;;
22129;SDS011;11231;50.746;4.272;2024-02-16T08:24:26;16.43;;;6.53;;
22129;SDS011;11231;50.746;4.272;2024-02-16T08:26:52;18.07;;;6.53;;
22129;SDS011;11231;50.746;4.272;2024-02-16T08:29:18;17.97;;;6.40;;
22129;SDS011;11231;50.746;4.272;2024-02-16T08:31:47;22.00;;;7.60;;
22129;SDS011;11231;50.746;4.272;2024-02-16T08:34:14;24.33;;;8.40;;
22129;SDS011;11231;50.746;4.272;2024-02-16T08:36:43;21.67;;;8.60;;
22129;SDS011;11231;50.746;4.272;2024-02-16T08:39:09;25.40;;;8.87;;
22129;SDS011;11231;50.746;4.272;2024-02-16T08:41:37;21.90;;;8.60;;
22129;SDS011;11231;50.746;4.272;2024-02-16T08:44:03;19.30;;;7.73;;
22129;SDS011;11231;50.746;4.272;2024-02-16T08:46:29;22.20;;;7.80;;
22129;SDS011;11231;50.746;4.272;2024-02-16T08:48:55;17.13;;;6.17;;
22129;SDS011;11231;50.746;4.272;2024-02-16T08:51:21;18.37;;;6.70;;
22129;SDS011;11231;50.746;4.272;2024-02-16T08:53:47;14.63;;;5.70;;
22129;SDS011;11231;50.746;4.272;2024-02-16T08:56:13;16.43;;;6.33;;
22129;SDS011;11231;50.746;4.272;2024-02-16T08:58:38;16.93;;;5.53;;
22129;SDS011;11231;50.746;4.272;2024-02-16T09:01:04;16.27;;;5.97;;
22129;SDS011;11231;50.746;4.272;2024-02-16T09:03:30;13.37;;;5.37;;
22129;SDS011;11231;50.746;4.272;2024-02-16T09:06:03;13.33;;;5.63;;
22129;SDS011;11231;50.746;4.272;2024-02-16T09:08:29;14.77;;;5.73;;
22129;SDS011;11231;50.746;4.272;2024-02-16T09:11:07;17.07;;;6.20;;
22129;SDS011;11231;50.746;4.272;2024-02-16T09:13:33;17.83;;;6.03;;
22129;SDS011;11231;50.746;4.272;2024-02-16T09:16:01;19.17;;;6.50;;
22129;SDS011;11231;50.746;4.272;2024-02-16T09:18:30;16.73;;;6.87;;
22129;SDS011;11231;50.746;4.272;2024-02-16T09:20:57;17.87;;;6.47;;
22129;SDS011;11231;50.746;4.272;2024-02-16T09:23:22;18.73;;;7.20;;
22129;SDS011;11231;50.746;4.272;2024-02-16T09:25:48;16.83;;;7.20;;
22129;SDS011;11231;50.746;4.272;2024-02-16T09:28:15;20.93;;;7.80;;
22129;SDS011;11231;50.746;4.272;2024-02-16T09:30:43;22.33;;;7.50;;
22129;SDS011;11231;50.746;4.272;2024-02-16T09:33:09;21.33;;;8.13;;
22129;SDS011;11231;50.746;4.272;2024-02-16T09:35:34;23.47;;;8.73;;
22129;SDS011;11231;50.746;4.272;2024-02-16T09:38:00;25.83;;;8.53;;
22129;SDS011;11231;50.746;4.272;2024-02-16T09:40:26;20.10;;;8.03;;
22129;SDS011;11231;50.746;4.272;2024-02-16T09:42:51;22.43;;;8.00;;
22129;SDS011;11231;50.746;4.272;2024-02-16T09:45:17;21.47;;;7.83;;
22129;SDS011;11231;50.746;4.272;2024-02-16T09:47:43;21.63;;;8.20;;
22129;SDS011;11231;50.746;4.272;2024-02-16T09:50:12;20.90;;;7.63;;
22129;SDS011;11231;50.746;4.272;2024-02-16T09:52:38;19.27;;;7.80;;
22129;SDS011;11231;50.746;4.272;2024-02-16T09:55:06;19.03;;;7.23;;
22129;SDS011;11231;50.746;4.272;2024-02-16T09:57:36;17.83;;;6.40;;
22129;SDS011;11231;50.746;4.272;2024-02-16T10:00:02;18.93;;;7.07;;
22129;SDS011;11231;50.746;4.272;2024-02-16T10:05:14;16.93;;;6.27;;
22129;SDS011;11231;50.746;4.272;2024-02-16T10:07:41;18.43;;;6.33;;
22129;SDS011;11231;50.746;4.272;2024-02-16T10:10:19;14.93;;;6.03;;
22129;SDS011;11231;50.746;4.272;2024-02-16T10:12:46;14.80;;;5.60;;
22129;SDS011;11231;50.746;4.272;2024-02-16T10:15:12;21.93;;;7.10;;
22129;SDS011;11231;50.746;4.272;2024-02-16T10:17:44;17.70;;;6.20;;
22129;SDS011;11231;50.746;4.272;2024-02-16T10:20:09;15.77;;;6.13;;
22129;SDS011;11231;50.746;4.272;2024-02-16T10:22:36;15.93;;;5.97;;
22129;SDS011;11231;50.746;4.272;2024-02-16T10:25:08;20.17;;;6.40;;
22129;SDS011;11231;50.746;4.272;2024-02-16T10:27:38;12.37;;;6.33;;
22129;SDS011;11231;50.746;4.272;2024-02-16T10:30:06;16.17;;;7.10;;
22129;SDS011;11231;50.746;4.272;2024-02-16T10:32:38;15.60;;;6.77;;
22129;SDS011;11231;50.746;4.272;2024-02-16T10:35:05;15.53;;;6.40;;
22129;SDS011;11231;50.746;4.272;2024-02-16T10:37:33;16.73;;;6.77;;
22129;SDS011;11231;50.746;4.272;2024-02-16T10:39:59;18.70;;;7.13;;
22129;SDS011;11231;50.746;4.272;2024-02-16T10:42:26;21.33;;;6.87;;
22129;SDS011;11231;50.746;4.272;2024-02-16T10:44:53;20.33;;;8.00;;
22129;SDS011;11231;50.746;4.272;2024-02-16T10:47:19;21.27;;;7.47;;
22129;SDS011;11231;50.746;4.272;2024-02-16T10:49:44;19.00;;;7.57;;
22129;SDS011;11231;50.746;4.272;2024-02-16T10:52:10;20.03;;;7.87;;
22129;SDS011;11231;50.746;4.272;2024-02-16T10:54:39;18.83;;;7.23;;
22129;SDS011;11231;50.746;4.272;2024-02-16T10:57:07;18.07;;;8.07;;
22129;SDS011;11231;50.746;4.272;2024-02-16T10:59:53;18.97;;;8.13;;
22129;SDS011;11231;50.746;4.272;2024-02-16T11:02:20;21.30;;;8.40;;
22129;SDS011;11231;50.746;4.272;2024-02-16T11:04:46;18.80;;;7.77;;
22129;SDS011;11231;50.746;4.272;2024-02-16T11:07:18;22.70;;;8.53;;
22129;SDS011;11231;50.746;4.272;2024-02-16T11:09:45;29.13;;;10.73;;
22129;SDS011;11231;50.746;4.272;2024-02-16T11:12:12;55.20;;;21.93;;
22129;SDS011;11231;50.746;4.272;2024-02-16T11:17:14;27.37;;;10.43;;
22129;SDS011;11231;50.746;4.272;2024-02-16T11:19:50;26.40;;;9.40;;
22129;SDS011;11231;50.746;4.272;2024-02-16T11:22:16;24.27;;;9.07;;
22129;SDS011;11231;50.746;4.272;2024-02-16T11:24:44;21.57;;;9.00;;
22129;SDS011;11231;50.746;4.272;2024-02-16T11:27:12;23.23;;;10.07;;
22129;SDS011;11231;50.746;4.272;2024-02-16T11:29:40;22.07;;;10.27;;
22129;SDS011;11231;50.746;4.272;2024-02-16T11:32:07;24.70;;;10.50;;
22129;SDS011;11231;50.746;4.272;2024-02-16T11:34:33;21.47;;;9.70;;
22129;SDS011;11231;50.746;4.272;2024-02-16T11:37:00;27.57;;;10.23;;
22129;SDS011;11231;50.746;4.272;2024-02-16T11:39:27;22.30;;;10.70;;
22129;SDS011;11231;50.746;4.272;2024-02-16T11:42:00;27.00;;;11.53;;
22129;SDS011;11231;50.746;4.272;2024-02-16T11:44:27;19.80;;;10.40;;
22129;SDS011;11231;50.746;4.272;2024-02-16T11:47:00;24.13;;;11.27;;
22129;SDS011;11231;50.746;4.272;2024-02-16T11:49:28;24.77;;;10.90;;
22129;SDS011;11231;50.746;4.272;2024-02-16T11:51:55;27.60;;;11.07;;
22129;SDS011;11231;50.746;4.272;2024-02-16T11:54:30;21.57;;;10.77;;
22129;SDS011;11231;50.746;4.272;2024-02-16T11:56:56;23.47;;;11.83;;
22129;SDS011;11231;50.746;4.272;2024-02-16T11:59:23;22.27;;;11.27;;
22129;SDS011;11231;50.746;4.272;2024-02-16T12:04:29;24.43;;;11.33;;
22129;SDS011;11231;50.746;4.272;2024-02-16T12:06:56;21.10;;;9.83;;
22129;SDS011;11231;50.746;4.272;2024-02-16T12:09:26;23.07;;;10.43;;
22129;SDS011;11231;50.746;4.272;2024-02-16T12:11:52;18.93;;;8.57;;
22129;SDS011;11231;50.746;4.272;2024-02-16T12:14:20;18.30;;;9.77;;
22129;SDS011;11231;50.746;4.272;2024-02-16T12:16:47;16.33;;;8.43;;
22129;SDS011;11231;50.746;4.272;2024-02-16T12:19:15;14.80;;;7.63;;
22129;SDS011;11231;50.746;4.272;2024-02-16T12:21:48;13.60;;;7.90;;
22129;SDS011;11231;50.746;4.272;2024-02-16T12:24:14;13.30;;;7.53;;
22129;SDS011;11231;50.746;4.272;2024-02-16T12:26:40;14.10;;;8.20;;
22129;SDS011;11231;50.746;4.272;2024-02-16T12:29:06;11.53;;;7.43;;
22129;SDS011;11231;50.746;4.272;2024-02-16T12:31:33;13.70;;;7.43;;
22129;SDS011;11231;50.746;4.272;2024-02-16T12:34:02;11.13;;;7.13;;
22129;SDS011;11231;50.746;4.272;2024-02-16T12:36:30;12.10;;;7.07;;
22129;SDS011;11231;50.746;4.272;2024-02-16T12:38:56;12.50;;;7.20;;
22129;SDS011;11231;50.746;4.272;2024-02-16T12:41:21;13.80;;;7.50;;
22129;SDS011;11231;50.746;4.272;2024-02-16T12:43:47;13.07;;;7.83;;
22129;SDS011;11231;50.746;4.272;2024-02-16T12:46:13;15.13;;;8.53;;
22129;SDS011;11231;50.746;4.272;2024-02-16T12:48:38;15.43;;;9.47;;
22129;SDS011;11231;50.746;4.272;2024-02-16T12:51:04;15.83;;;9.67;;
22129;SDS011;11231;50.746;4.272;2024-02-16T12:53:30;15.53;;;9.70;;
22129;SDS011;11231;50.746;4.272;2024-02-16T12:56:06;15.07;;;9.70;;
22129;SDS011;11231;50.746;4.272;2024-02-16T12:58:33;18.43;;;10.63;;
22129;SDS011;11231;50.746;4.272;2024-02-16T13:00:59;16.60;;;9.73;;
22129;SDS011;11231;50.746;4.272;2024-02-16T13:03:25;16.90;;;10.20;;
22129;SDS011;11231;50.746;4.272;2024-02-16T13:05:51;15.80;;;10.20;;
22129;SDS011;11231;50.746;4.272;2024-02-16T13:08:17;15.87;;;10.50;;
22129;SDS011;11231;50.746;4.272;2024-02-16T13:10:42;15.60;;;10.30;;
22129;SDS011;11231;50.746;4.272;2024-02-16T13:13:09;16.57;;;10.87;;
22129;SDS011;11231;50.746;4.272;2024-02-16T13:15:35;15.53;;;10.20;;
22129;SDS011;11231;50.746;4.272;2024-02-16T13:18:00;16.90;;;10.83;;
22129;SDS011;11231;50.746;4.272;2024-02-16T13:20:26;16.40;;;10.03;;
22129;SDS011;11231;50.746;4.272;2024-02-16T13:22:52;16.27;;;10.20;;
22129;SDS011;11231;50.746;4.272;2024-02-16T13:25:19;13.23;;;8.97;;
22129;SDS011;11231;50.746;4.272;2024-02-16T13:27:44;14.47;;;9.10;;
22129;SDS011;11231;50.746;4.272;2024-02-16T13:30:10;15.63;;;9.23;;
22129;SDS011;11231;50.746;4.272;2024-02-16T13:32:36;15.40;;;9.83;;
22129;SDS011;11231;50.746;4.272;2024-02-16T13:35:07;14.67;;;9.47;;
22129;SDS011;11231;50.746;4.272;2024-02-16T13:37:33;14.37;;;8.70;;
22129;SDS011;11231;50.746;4.272;2024-02-16T13:39:59;12.30;;;7.70;;
22129;SDS011;11231;50.746;4.272;2024-02-16T13:42:24;13.10;;;8.00;;
22129;SDS011;11231;50.746;4.272;2024-02-16T13:44:51;11.97;;;7.47;;
22129;SDS011;11231;50.746;4.272;2024-02-16T13:47:17;12.23;;;7.53;;
22129;SDS011;11231;50.746;4.272;2024-02-16T13:49:43;12.53;;;7.10;;
22129;SDS011;11231;50.746;4.272;2024-02-16T13:52:09;9.73;;;6.10;;
22129;SDS011;11231;50.746;4.272;2024-02-16T13:54:35;10.87;;;6.17;;
22129;SDS011;11231;50.746;4.272;2024-02-16T13:57:01;8.77;;;5.73;;
22129;SDS011;11231;50.746;4.272;2024-02-16T13:59:27;9.07;;;5.33;;
22129;SDS011;11231;50.746;4.272;2024-02-16T14:01:53;10.47;;;5.00;;
22129;SDS011;11231;50.746;4.272;2024-02-16T14:04:19;10.43;;;5.73;;
22129;SDS011;11231;50.746;4.272;2024-02-16T14:06:45;9.93;;;5.50;;
22129;SDS011;11231;50.746;4.272;2024-02-16T14:09:10;10.73;;;5.70;;
22129;SDS011;11231;50.746;4.272;2024-02-16T14:11:39;8.50;;;4.93;;
22129;SDS011;11231;50.746;4.272;2024-02-16T14:14:07;9.70;;;5.40;;
22129;SDS011;11231;50.746;4.272;2024-02-16T14:16:33;10.53;;;5.23;;
22129;SDS011;11231;50.746;4.272;2024-02-16T14:18:59;8.60;;;5.17;;
22129;SDS011;11231;50.746;4.272;2024-02-16T14:21:25;8.83;;;4.97;;
22129;SDS011;11231;50.746;4.272;2024-02-16T14:23:50;8.97;;;5.03;;
22129;SDS011;11231;50.746;4.272;2024-02-16T14:26:16;7.70;;;4.80;;
22129;SDS011;11231;50.746;4.272;2024-02-16T14:28:42;7.57;;;4.87;;
22129;SDS011;11231;50.746;4.272;2024-02-16T14:31:08;9.70;;;4.60;;
22129;SDS011;11231;50.746;4.272;2024-02-16T14:33:34;8.23;;;4.63;;
22129;SDS011;11231;50.746;4.272;2024-02-16T14:36:03;6.23;;;3.87;;
22129;SDS011;11231;50.746;4.272;2024-02-16T14:38:29;6.13;;;3.30;;
22129;SDS011;11231;50.746;4.272;2024-02-16T14:40:56;8.17;;;4.10;;
22129;SDS011;11231;50.746;4.272;2024-02-16T14:43:22;6.30;;;3.70;;